Time;durP1;ratioP1;P1;durP2;ratioP2;P2;SDS_P1;SDS_P2;PMS_P1;PMS_P2;Temp;Humidity;BMP_temperature;BMP_pressure;BME280_temperature;BME280_humidity;BME280_pressure;Samples;Min_cycle;Max_cycle;Signal;HPM_P1;HPM_P2
2023/05/14 09:07:39;;;;;;;9.55;3.50;;;;;;;-144.73;38.26;54122.41;5031429;28;20037;-71
2023/05/14 09:10:05;;;;;;;6.88;3.50;;;;;;;-144.73;38.45;54128.56;5029256;28;20056;-72
2023/05/14 09:12:31;;;;;;;7.30;3.05;;;;;;;-144.73;37.26;54145.00;5029543;28;20061;-71
2023/05/14 09:14:57;;;;;;;7.90;3.03;;;;;;;-144.73;37.13;54128.56;5031445;28;20057;-73
2023/05/14 09:17:25;;;;;;;12.50;3.42;;;;;;;-144.73;37.93;54128.56;5028276;28;20081;-72
2023/05/14 09:19:51;;;;;;;4.75;2.80;;;;;;;-144.73;38.05;54101.88;5030169;28;20021;-73
2023/05/14 09:22:18;;;;;;;5.28;2.92;;;;;;;-144.73;37.62;54153.19;5028769;28;20037;-70
2023/05/14 09:24:44;;;;;;;10.63;3.50;;;;;;;-144.73;35.74;54108.03;5030880;28;20017;-73
2023/05/14 09:27:20;;;;;;;9.32;3.58;;;;;;;-144.73;35.33;54095.72;5018814;28;20029;-72
2023/05/14 09:29:47;;;;;;;10.77;2.78;;;;;;;-144.73;35.23;54101.88;5030760;28;20030;-71
2023/05/14 09:32:12;;;;;;;9.23;2.80;;;;;;;-144.73;34.37;54112.16;5030194;28;20030;-72
2023/05/14 09:34:39;;;;;;;14.55;3.70;;;;;;;-144.73;34.75;54099.84;5031345;28;20025;-70
2023/05/14 09:37:06;;;;;;;6.45;2.92;;;;;;;-144.73;34.23;54099.84;5030127;28;20112;-70
2023/05/14 09:39:35;;;;;;;7.78;2.75;;;;;;;-144.73;34.33;54091.63;5026667;28;20022;-72
2023/05/14 09:42:00;;;;;;;20.23;3.75;;;;;;;-144.73;33.84;54095.72;5030346;28;20033;-72
2023/05/14 09:44:26;;;;;;;14.98;3.53;;;;;;;-144.73;34.22;54103.94;5014539;28;20029;-71
2023/05/14 09:46:53;;;;;;;4.60;2.47;;;;;;;-144.73;33.79;54095.72;5030337;28;20113;-71
2023/05/14 09:49:21;;;;;;;5.60;2.60;;;;;;;-144.73;33.95;54116.25;5016129;28;20021;-71
2023/05/14 09:51:50;;;;;;;13.88;3.28;;;;;;;-144.73;32.70;54052.63;5029577;28;20071;-71
2023/05/14 09:54:16;;;;;;;6.47;3.08;;;;;;;-144.73;32.21;54062.91;5030856;28;20037;-71
2023/05/14 09:56:43;;;;;;;14.57;3.60;;;;;;;-144.73;32.28;54099.84;5029755;28;20191;-70
2023/05/14 09:59:09;;;;;;;8.43;3.53;;;;;;;-144.73;32.52;54161.41;5030707;28;20048;-71
2023/05/14 10:01:36;;;;;;;15.57;3.10;;;;;;;-144.73;33.16;54132.69;5029219;28;20034;-70
2023/05/14 10:04:06;;;;;;;14.35;2.60;;;;;;;-144.73;33.73;54165.50;5013083;28;20025;-70
2023/05/14 10:06:36;;;;;;;7.10;2.88;;;;;;;-144.73;34.15;54116.25;5029446;28;20383;-72
2023/05/14 10:09:04;;;;;;;10.88;2.97;;;;;;;-144.73;34.61;54149.09;5030456;28;20021;-71
2023/05/14 10:11:41;;;;;;;7.70;3.08;;;;;;;-144.73;33.79;54167.56;5029929;28;20046;-70
2023/05/14 10:14:23;;;;;;;3.70;2.30;;;;;;;-144.73;32.83;54145.00;5027500;28;20023;-70
2023/05/14 10:16:50;;;;;;;7.45;3.00;;;;;;;-144.73;32.21;54108.03;5011159;28;20067;-69
2023/05/14 10:19:18;;;;;;;9.00;2.78;;;;;;;-144.73;33.12;54173.72;5031642;28;20394;-72
2023/05/14 10:21:48;;;;;;;9.35;2.78;;;;;;;-144.73;33.07;54132.69;5028940;28;20042;-70
2023/05/14 10:24:14;;;;;;;6.68;3.08;;;;;;;-144.73;34.00;54202.44;5015760;28;20494;-71
2023/05/14 10:26:40;;;;;;;5.72;2.63;;;;;;;-144.73;34.72;54112.16;5027031;28;20029;-70
2023/05/14 10:29:09;;;;;;;8.02;2.50;;;;;;;-144.73;34.64;54095.72;5013690;28;20074;-69
2023/05/14 10:31:52;;;;;;;7.47;3.00;;;;;;;-144.73;33.30;54103.94;5025544;28;20038;-72
2023/05/14 10:34:39;;;;;;;10.88;2.83;;;;;;;-144.73;33.85;54120.34;5029729;28;20108;-72
2023/05/14 10:37:08;;;;;;;6.60;2.83;;;;;;;-144.73;33.87;54145.00;5029167;28;20034;-71
2023/05/14 10:39:42;;;;;;;10.52;3.03;;;;;;;-144.73;33.65;54165.50;5029556;28;20029;-72
2023/05/14 10:42:10;;;;;;;12.38;5.07;;;;;;;-144.73;32.76;54128.56;5022828;28;20038;-71
2023/05/14 10:44:45;;;;;;;6.72;2.70;;;;;;;-144.73;32.05;54145.00;5026998;28;20048;-73
2023/05/14 10:47:10;;;;;;;4.50;2.30;;;;;;;-144.73;32.79;54108.03;5023342;28;20461;-71
2023/05/14 10:49:36;;;;;;;9.57;2.60;;;;;;;-144.73;32.33;54093.69;5016444;28;20017;-71
2023/05/14 10:52:02;;;;;;;9.25;3.03;;;;;;;-144.73;31.75;54124.47;5027937;28;20041;-70
2023/05/14 10:54:28;;;;;;;5.47;3.10;;;;;;;-144.73;31.60;54149.09;5011419;28;20031;-71
2023/05/14 10:56:58;;;;;;;7.25;2.80;;;;;;;-144.73;31.67;54145.00;5027757;28;20042;-72
2023/05/14 10:59:27;;;;;;;8.38;2.60;;;;;;;-144.73;31.37;54112.16;5029159;28;20035;-71
2023/05/14 11:01:53;;;;;;;5.50;2.97;;;;;;;-144.73;31.26;54114.19;5015751;28;20468;-71
2023/05/14 11:04:22;;;;;;;7.35;3.63;;;;;;;-144.73;31.91;54145.00;5036430;28;20108;-73
2023/05/14 11:06:48;;;;;;;7.30;3.17;;;;;;;-144.73;32.34;54052.63;5032455;28;20039;-72
2023/05/14 11:09:16;;;;;;;5.05;3.10;;;;;;;-144.73;32.70;54136.78;5028871;28;20018;-70
2023/05/14 11:11:42;;;;;;;5.65;2.97;;;;;;;-144.73;32.10;54079.31;5035574;28;20048;-70
2023/05/14 11:14:09;;;;;;;6.00;3.05;;;;;;;-144.73;32.01;54079.31;5033877;28;20029;-71
2023/05/14 11:16:36;;;;;;;4.60;3.30;;;;;;;-144.73;31.58;54083.41;5018101;28;20033;-72
2023/05/14 11:19:03;;;;;;;14.25;2.88;;;;;;;-144.73;31.17;54050.59;5036638;28;20507;-71
2023/05/14 11:21:31;;;;;;;10.13;3.25;;;;;;;-144.73;31.42;54120.34;5019275;28;20096;-71
2023/05/14 11:23:58;;;;;;;5.07;3.05;;;;;;;-144.73;31.42;54116.25;5032438;28;20036;-72
2023/05/14 11:26:26;;;;;;;8.95;3.00;;;;;;;-144.73;32.71;54151.16;5029608;28;20033;-70
2023/05/14 11:28:53;;;;;;;6.10;3.30;;;;;;;-144.73;33.18;54128.56;5027767;28;20021;-70
2023/05/14 11:31:20;;;;;;;9.23;2.95;;;;;;;-144.73;33.66;54145.00;5022510;28;20034;-72
2023/05/14 11:33:49;;;;;;;11.80;3.33;;;;;;;-144.73;33.53;54124.47;5030562;28;20033;-70
2023/05/14 11:36:15;;;;;;;9.13;2.83;;;;;;;-144.73;33.56;54083.41;5017768;28;20048;-71
2023/05/14 11:38:47;;;;;;;10.40;3.15;;;;;;;-144.73;33.00;54132.69;5015525;28;20026;-70
2023/05/14 11:41:14;;;;;;;10.55;3.47;;;;;;;-144.73;33.58;54165.50;5024352;28;20056;-71
2023/05/14 11:43:40;;;;;;;8.57;3.20;;;;;;;-144.73;34.29;54177.81;5012398;28;20029;-72
2023/05/14 11:46:06;;;;;;;4.93;3.13;;;;;;;-144.73;34.60;54165.50;5029212;28;20029;-71
2023/05/14 11:48:32;;;;;;;7.85;3.35;;;;;;;-144.73;35.16;54147.03;5027753;28;20040;-71
2023/05/14 11:50:57;;;;;;;12.88;3.58;;;;;;;-144.73;35.58;54149.09;5029317;28;20021;-71
2023/05/14 11:53:28;;;;;;;10.52;2.92;;;;;;;-144.73;35.86;54136.78;5014990;28;20021;-71
2023/05/14 11:55:56;;;;;;;7.32;3.10;;;;;;;-144.73;33.77;54145.00;5026294;28;20029;-73
2023/05/14 11:58:23;;;;;;;7.07;2.95;;;;;;;-144.73;34.31;54186.03;5032801;28;20029;-71
2023/05/14 12:00:50;;;;;;;18.45;3.25;;;;;;;-144.73;33.48;54145.00;5032116;28;20037;-71
2023/05/14 12:03:24;;;;;;;7.10;3.33;;;;;;;-144.73;34.15;54128.56;5018429;28;20053;-71
2023/05/14 12:05:59;;;;;;;13.60;3.30;;;;;;;-144.73;34.91;54145.00;5029266;28;20037;-71
2023/05/14 12:08:30;;;;;;;8.35;3.15;;;;;;;-144.73;36.39;54124.47;5016944;28;20056;-70
2023/05/14 12:11:00;;;;;;;7.75;3.17;;;;;;;-144.73;34.57;54161.41;5028226;28;20064;-71
2023/05/14 12:13:27;;;;;;;6.78;3.35;;;;;;;-144.73;34.60;54145.00;5029220;28;20029;-70
2023/05/14 12:15:55;;;;;;;6.18;3.03;;;;;;;-144.73;34.01;54177.81;5022363;28;20026;-69
2023/05/14 12:18:21;;;;;;;8.75;3.33;;;;;;;-144.73;32.10;54145.00;5028675;28;20032;-69
2023/05/14 12:20:52;;;;;;;9.88;3.10;;;;;;;-144.73;32.94;54130.63;5028691;28;20022;-70
2023/05/14 12:23:31;;;;;;;8.45;3.00;;;;;;;-144.73;32.55;54136.78;5027392;28;20045;-72
2023/05/14 12:26:05;;;;;;;4.75;2.60;;;;;;;-144.73;32.51;54149.09;5028288;28;20034;-70
2023/05/14 12:28:31;;;;;;;8.13;3.25;;;;;;;-144.73;32.20;54116.25;5028365;28;20089;-70
2023/05/14 12:30:58;;;;;;;10.32;3.40;;;;;;;-144.73;32.24;54132.69;5011507;28;20026;-71
2023/05/14 12:33:25;;;;;;;7.90;3.00;;;;;;;-144.73;32.44;54095.72;5027838;28;20063;-70
2023/05/14 12:36:00;;;;;;;9.93;2.70;;;;;;;-144.73;32.22;54120.34;5011893;28;20029;-70
2023/05/14 12:38:29;;;;;;;9.38;3.22;;;;;;;-144.73;30.98;54124.47;5028335;28;20073;-71
2023/05/14 12:40:55;;;;;;;10.00;3.38;;;;;;;-144.73;31.14;54108.03;5029681;28;20029;-70
2023/05/14 12:43:21;;;;;;;8.10;3.30;;;;;;;-144.73;29.91;54114.19;5029135;28;20030;-70
2023/05/14 12:45:47;;;;;;;6.32;3.05;;;;;;;-144.73;29.76;54112.16;5028776;28;20033;-71
2023/05/14 12:48:19;;;;;;;6.78;3.15;;;;;;;-144.73;29.05;54122.41;5010520;28;20029;-75
2023/05/14 12:50:45;;;;;;;;;;;;;;;-144.73;28.11;54075.22;5038083;28;20051;-75
2023/05/14 12:53:15;;;;;;;12.20;3.38;;;;;;;-144.73;28.25;54103.94;5043874;28;19905;-75
2023/05/14 12:55:43;;;;;;;14.23;3.10;;;;;;;-144.73;28.22;54099.84;5041544;28;20028;-76
2023/05/14 12:58:09;;;;;;;12.55;3.22;;;;;;;-144.73;28.53;54091.63;5039710;28;20041;-76
2023/05/14 13:00:43;;;;;;;7.97;3.45;;;;;;;-144.73;27.96;54071.09;5042384;28;20056;-75
2023/05/14 13:03:09;;;;;;;5.32;3.38;;;;;;;-144.73;27.60;54058.78;5038849;28;20030;-76
2023/05/14 13:06:01;;;;;;;7.57;2.72;;;;;;;-144.73;27.48;54099.84;5025973;28;20025;-76
2023/05/14 13:09:19;;;;;;;12.27;2.95;;;;;;;-144.73;27.16;54095.72;5036291;28;20116;-77
2023/05/14 13:12:25;;;;;;;10.80;3.13;;;;;;;-144.73;27.71;54116.25;5023969;28;20049;-76
2023/05/14 13:15:06;;;;;;;6.90;3.42;;;;;;;-144.73;28.49;54099.84;5038898;28;20060;-76
2023/05/14 13:18:03;;;;;;;;;;;;;;;;;;;;;
2023/05/14 13:21:18;;;;;;;10.10;3.10;;;;;;;-144.73;36.86;54124.47;4990938;28;20081;-75
2023/05/14 13:24:42;;;;;;;8.18;3.35;;;;;;;-144.73;41.40;54149.09;5011129;28;20041;-76
2023/05/14 13:27:27;;;;;;;5.70;3.00;;;;;;;-144.73;39.21;54181.94;5028107;28;20033;-75
2023/05/14 13:30:59;;;;;;;6.00;3.20;;;;;;;-144.73;39.29;54145.00;5022705;28;20025;-74
2023/05/14 13:33:25;;;;;;;8.77;3.10;;;;;;;-144.73;41.94;54161.41;5039903;28;20041;-75
2023/05/14 13:35:51;;;;;;;6.38;3.25;;;;;;;-144.73;42.54;54128.56;5023726;28;20031;-76
2023/05/14 13:38:20;;;;;;;7.00;3.40;;;;;;;-144.73;43.85;54145.00;5036512;28;20128;-75
2023/05/14 13:40:46;;;;;;;10.40;3.53;;;;;;;-144.73;42.88;54181.94;5038172;28;20025;-74
2023/05/14 13:43:12;;;;;;;9.80;3.60;;;;;;;-144.73;43.85;54153.19;5025248;28;20030;-75
2023/05/14 13:45:38;;;;;;;8.73;4.05;;;;;;;-144.73;42.91;54161.41;5025224;28;20033;-76
2023/05/14 13:48:04;;;;;;;9.07;3.25;;;;;;;-144.73;34.72;54186.03;5041304;28;20031;-74
2023/05/14 13:50:30;;;;;;;4.78;2.42;;;;;;;-144.73;32.13;54173.72;5025316;28;20017;-74
2023/05/14 13:52:56;;;;;;;8.05;2.97;;;;;;;-144.73;34.01;54145.00;5031946;28;20025;-75
2023/05/14 13:55:21;;;;;;;9.85;2.50;;;;;;;-144.73;32.70;54198.34;5030796;28;20025;-75
2023/05/14 13:57:47;;;;;;;12.77;3.50;;;;;;;-144.73;33.59;54145.00;5030497;28;20045;-76
2023/05/14 14:00:14;;;;;;;6.18;3.10;;;;;;;-144.73;34.63;54112.16;5030591;28;20025;-74
2023/05/14 14:02:40;;;;;;;11.45;3.15;;;;;;;-144.73;34.69;54116.25;5024254;28;20037;-74
2023/05/14 14:05:06;;;;;;;10.23;4.50;;;;;;;-144.73;35.19;54108.03;5031665;28;20018;-75
2023/05/14 14:07:32;;;;;;;7.32;3.65;;;;;;;-144.73;33.40;54147.03;5031019;28;20489;-74
2023/05/14 14:10:00;;;;;;;9.32;3.25;;;;;;;-144.73;31.91;54149.09;5017232;28;20030;-75
2023/05/14 14:12:26;;;;;;;7.65;3.40;;;;;;;-144.73;31.67;54134.72;5018730;28;20041;-74
2023/05/14 14:14:51;;;;;;;10.30;2.90;;;;;;;-144.73;30.99;54120.34;5032355;28;20030;-76
2023/05/14 14:17:17;;;;;;;5.68;2.83;;;;;;;-144.73;30.74;54112.16;5015175;28;20096;-75
2023/05/14 14:19:43;;;;;;;6.57;2.90;;;;;;;-144.73;30.92;54120.34;5031557;28;20028;-75
2023/05/14 14:22:09;;;;;;;10.75;3.58;;;;;;;-144.73;31.35;54099.84;5031071;28;20068;-75
2023/05/14 14:24:34;;;;;;;5.95;3.03;;;;;;;-144.73;31.72;54095.72;5031998;28;20471;-75
2023/05/14 14:27:01;;;;;;;12.70;3.65;;;;;;;-144.73;30.12;54132.69;5030350;28;20525;-75
2023/05/14 14:29:29;;;;;;;5.28;3.80;;;;;;;-144.73;30.62;54157.31;5031515;28;20022;-76
2023/05/14 14:31:56;;;;;;;6.15;4.00;;;;;;;-144.73;31.11;54116.25;5030565;28;20091;-74
2023/05/14 14:34:21;;;;;;;9.40;3.58;;;;;;;-144.73;31.67;54103.94;5031214;28;20036;-76
2023/05/14 14:36:47;;;;;;;12.55;3.75;;;;;;;-144.73;31.82;54169.63;5031395;28;20042;-76
2023/05/14 14:39:13;;;;;;;11.68;3.80;;;;;;;-144.73;31.42;54112.16;5031777;28;20017;-76
2023/05/14 14:41:39;;;;;;;14.45;5.30;;;;;;;-144.73;31.05;54155.25;5029917;28;20038;-76
2023/05/14 14:44:05;;;;;;;5.18;2.88;;;;;;;-144.73;31.40;54132.69;5031204;28;20027;-76
2023/05/14 14:46:31;;;;;;;5.18;3.42;;;;;;;-144.73;31.13;54128.56;5031763;28;20049;-76
2023/05/14 14:48:56;;;;;;;7.35;3.38;;;;;;;-144.73;30.88;54149.09;5016386;28;20025;-76
2023/05/14 14:51:22;;;;;;;7.10;3.47;;;;;;;-144.73;31.35;54118.31;5031990;28;20037;-76
2023/05/14 14:53:47;;;;;;;14.98;3.10;;;;;;;-144.73;31.12;54155.25;5033958;28;20021;-75
2023/05/14 14:56:12;;;;;;;14.73;3.45;;;;;;;-144.73;31.00;54112.16;5031377;28;20105;-75
2023/05/14 14:58:38;;;;;;;10.23;2.97;;;;;;;-144.73;31.00;54120.34;5017013;28;20021;-75
2023/05/14 15:01:03;;;;;;;10.63;3.50;;;;;;;-144.73;30.24;54089.56;5015261;28;20034;-75
2023/05/14 15:03:28;;;;;;;10.43;3.78;;;;;;;-144.73;30.96;54079.31;5035829;28;20112;-75
2023/05/14 15:05:54;;;;;;;8.70;3.15;;;;;;;-144.73;31.79;54091.63;5036613;28;20033;-76
2023/05/14 15:08:23;;;;;;;33.03;12.98;;;;;;;-144.73;31.65;54145.00;5035351;28;20029;-75
2023/05/14 15:10:49;;;;;;;23.60;9.65;;;;;;;-144.73;31.51;54128.56;5030163;28;20053;-74
2023/05/14 15:13:14;;;;;;;13.77;3.30;;;;;;;-144.73;31.01;54116.25;5031834;28;20075;-75
2023/05/14 15:15:39;;;;;;;9.05;3.50;;;;;;;-144.73;30.71;54091.63;5014368;28;20021;-75
2023/05/14 15:18:05;;;;;;;6.43;3.65;;;;;;;-144.73;29.49;54099.84;5014089;28;20037;-75
2023/05/14 15:20:30;;;;;;;11.10;3.50;;;;;;;-144.73;29.26;54050.59;5014518;28;20033;-76
2023/05/14 15:22:56;;;;;;;7.20;3.72;;;;;;;-144.73;28.10;54075.22;5012665;28;20033;-75
2023/05/14 15:25:22;;;;;;;11.32;3.10;;;;;;;-144.73;28.04;54108.03;5013650;28;20061;-75
2023/05/14 15:27:49;;;;;;;4.68;3.17;;;;;;;-144.73;27.80;54079.31;5029389;28;20116;-75
2023/05/14 15:30:14;;;;;;;6.78;3.63;;;;;;;-144.73;27.66;54081.38;5030832;28;20138;-74
2023/05/14 15:32:40;;;;;;;9.30;3.45;;;;;;;-144.73;28.39;54091.63;5022590;28;20057;-74
2023/05/14 15:35:06;;;;;;;6.63;3.50;;;;;;;-144.73;27.86;54067.00;5020361;28;20390;-75
2023/05/14 15:37:41;;;;;;;13.80;3.20;;;;;;;-144.73;27.79;54054.69;5019514;28;20037;-75
2023/05/14 15:40:07;;;;;;;9.80;3.75;;;;;;;-144.73;27.10;54046.47;5021359;28;20022;-75
2023/05/14 15:42:37;;;;;;;7.95;3.30;;;;;;;-144.73;26.85;54062.91;5012758;28;20030;-76
2023/05/14 15:45:03;;;;;;;10.05;3.10;;;;;;;-144.73;26.72;54050.59;5029186;28;20502;-75
2023/05/14 15:47:29;;;;;;;8.85;3.28;;;;;;;-144.73;26.84;54050.59;5029219;28;20033;-75
2023/05/14 15:49:54;;;;;;;17.17;3.72;;;;;;;-144.73;26.96;54116.25;5013114;28;20033;-75
2023/05/14 15:52:20;;;;;;;11.73;2.80;;;;;;;-144.73;26.51;54099.84;5011885;28;20064;-75
2023/05/14 15:54:46;;;;;;;8.10;3.40;;;;;;;-144.73;26.43;54058.78;5029121;28;20064;-75
2023/05/14 15:57:11;;;;;;;8.75;4.95;;;;;;;-144.73;27.15;54099.84;5029170;28;20029;-75
2023/05/14 15:59:37;;;;;;;7.07;2.95;;;;;;;-144.73;26.79;54077.25;5012837;28;20105;-75
2023/05/14 16:02:02;;;;;;;11.35;2.88;;;;;;;-144.73;26.76;54095.72;5029636;28;20125;-75
2023/05/14 16:04:27;;;;;;;12.48;2.83;;;;;;;-144.73;26.56;54071.09;5012896;28;20720;-75
2023/05/14 16:06:53;;;;;;;12.10;2.90;;;;;;;-144.73;26.28;54089.56;5012293;28;20080;-76
2023/05/14 16:09:18;;;;;;;10.60;2.90;;;;;;;-144.73;26.44;54067.00;5012671;28;20029;-75
2023/05/14 16:11:43;;;;;;;5.45;3.30;;;;;;;-144.73;26.56;54099.84;5036326;28;20065;-75
2023/05/14 16:14:09;;;;;;;12.02;4.00;;;;;;;-144.73;27.15;54103.94;5020553;28;20017;-76
2023/05/14 16:16:35;;;;;;;10.57;3.35;;;;;;;-144.73;27.56;54087.53;5029090;28;20029;-75
2023/05/14 16:19:00;;;;;;;11.25;2.95;;;;;;;-144.73;27.08;54099.84;5016164;28;20085;-76
2023/05/14 16:21:26;;;;;;;7.90;3.33;;;;;;;-144.73;27.40;54079.31;5028990;28;20140;-76
2023/05/14 16:23:51;;;;;;;6.22;2.67;;;;;;;-144.73;28.01;54067.00;5033622;28;20021;-76
2023/05/14 16:26:16;;;;;;;8.35;3.08;;;;;;;-144.73;28.69;54071.09;5017349;28;20100;-76
2023/05/14 16:28:42;;;;;;;9.38;3.03;;;;;;;-144.73;28.53;54120.34;5030981;28;20133;-76
2023/05/14 16:31:07;;;;;;;17.27;3.45;;;;;;;-144.73;28.31;54087.53;5012111;28;20049;-76
2023/05/14 16:33:32;;;;;;;11.30;3.53;;;;;;;-144.73;28.20;54093.69;5034175;28;20035;-76
2023/05/14 16:35:58;;;;;;;8.38;3.30;;;;;;;-144.73;28.60;54099.84;5034444;28;20025;-77
2023/05/14 16:38:23;;;;;;;18.67;2.95;;;;;;;-144.73;28.17;54067.00;5032556;28;20025;-76
2023/05/14 16:40:49;;;;;;;22.27;4.35;;;;;;;-144.73;27.48;54099.84;5030326;28;20031;-76
2023/05/14 16:43:14;;;;;;;12.70;3.60;;;;;;;-144.73;27.40;54087.53;5016403;28;20043;-76
2023/05/14 16:45:39;;;;;;;7.80;3.15;;;;;;;-144.73;27.38;54103.94;5012369;28;20041;-76
2023/05/14 16:48:05;;;;;;;11.00;2.60;;;;;;;-144.73;27.75;54083.41;5033078;28;20033;-76
2023/05/14 16:50:31;;;;;;;6.72;2.67;;;;;;;-144.73;27.77;54099.84;5036164;28;20018;-76
2023/05/14 16:52:56;;;;;;;10.48;2.92;;;;;;;-144.73;28.17;54095.72;5027929;28;20095;-75
2023/05/14 16:55:21;;;;;;;6.28;3.70;;;;;;;-144.73;28.84;54118.31;5012286;28;20501;-76
2023/05/14 16:57:47;;;;;;;8.25;3.30;;;;;;;-144.73;29.25;54083.41;5017277;28;20053;-76
2023/05/14 17:00:14;;;;;;;10.82;3.47;;;;;;;-144.73;29.56;54083.41;5011911;28;20026;-76
2023/05/14 17:02:39;;;;;;;10.95;3.20;;;;;;;-144.73;30.48;54091.63;5021235;28;20042;-75
2023/05/14 17:05:05;;;;;;;5.22;2.85;;;;;;;-144.73;31.41;54099.84;5012461;28;20040;-76
2023/05/14 17:07:31;;;;;;;7.53;3.90;;;;;;;-144.73;31.61;54126.53;5032536;28;20037;-75
2023/05/14 17:09:58;;;;;;;6.65;3.25;;;;;;;-144.73;32.73;54108.03;5012344;28;20493;-75
2023/05/14 17:12:25;;;;;;;10.18;3.08;;;;;;;-144.73;33.06;54108.03;5016324;28;20029;-75
2023/05/14 17:14:50;;;;;;;6.60;3.33;;;;;;;-144.73;33.86;54112.16;5011849;28;20041;-75
2023/05/14 17:17:15;;;;;;;6.55;3.00;;;;;;;-144.73;34.48;54112.16;5012168;28;20509;-75
2023/05/14 17:19:41;;;;;;;7.18;3.10;;;;;;;-144.73;34.45;54145.00;5035892;28;20155;-75
2023/05/14 17:22:07;;;;;;;8.77;3.13;;;;;;;-144.73;34.28;54079.31;5030858;28;20060;-75
2023/05/14 17:24:33;;;;;;;6.97;3.20;;;;;;;-144.73;34.16;54128.56;5024882;28;20048;-74
2023/05/14 17:26:59;;;;;;;12.25;3.10;;;;;;;-144.73;34.01;54157.31;5011533;28;20269;-74
2023/05/14 17:29:25;;;;;;;13.00;3.55;;;;;;;-144.73;34.50;54083.41;5012722;28;20029;-75
2023/05/14 17:31:50;;;;;;;12.65;3.13;;;;;;;-144.73;34.79;54136.78;5024084;28;20037;-74
2023/05/14 17:34:16;;;;;;;14.68;3.70;;;;;;;-144.73;34.20;54136.78;5021284;28;20021;-74
2023/05/14 17:36:42;;;;;;;11.68;3.80;;;;;;;-144.73;33.46;54114.19;5041552;28;20044;-74
2023/05/14 17:39:07;;;;;;;13.95;3.13;;;;;;;-144.73;33.61;54075.22;5028500;28;20021;-75
2023/05/14 17:41:33;;;;;;;8.63;3.53;;;;;;;-144.73;34.09;54145.00;5035656;28;20121;-75
2023/05/14 17:43:58;;;;;;;10.82;3.17;;;;;;;-144.73;34.86;54116.25;5032244;28;20036;-75
2023/05/14 17:46:24;;;;;;;12.07;4.10;;;;;;;-144.73;35.19;54122.41;5015636;28;20148;-76
2023/05/14 17:48:49;;;;;;;9.15;3.53;;;;;;;-144.73;34.77;54167.56;5015572;28;20033;-75
2023/05/14 17:51:14;;;;;;;13.43;3.55;;;;;;;-144.73;34.98;54112.16;5015216;28;20060;-75
2023/05/14 17:53:40;;;;;;;12.85;3.38;;;;;;;-144.73;34.60;54120.34;5015399;28;20025;-74
2023/05/14 17:56:05;;;;;;;7.13;3.03;;;;;;;-144.73;34.77;54120.34;5033244;28;20021;-75
2023/05/14 17:58:30;;;;;;;16.70;3.33;;;;;;;-144.73;34.54;54099.84;5023330;28;20029;-76
2023/05/14 18:00:56;;;;;;;11.10;3.47;;;;;;;-144.73;34.89;54128.56;5032754;28;20025;-75
2023/05/14 18:03:21;;;;;;;12.48;3.47;;;;;;;-144.73;34.73;54136.78;5033001;28;20022;-75
2023/05/14 18:05:46;;;;;;;10.40;3.33;;;;;;;-144.73;34.64;54112.16;5019277;28;20025;-74
2023/05/14 18:08:13;;;;;;;14.23;3.40;;;;;;;-144.73;34.51;54149.09;5015276;28;20564;-75
2023/05/14 18:10:38;;;;;;;9.40;3.75;;;;;;;-144.73;34.24;54095.72;5036053;28;20013;-75
2023/05/14 18:13:04;;;;;;;8.68;3.70;;;;;;;-144.73;34.25;54124.47;5038825;28;20112;-75
2023/05/14 18:15:30;;;;;;;9.93;3.17;;;;;;;-144.73;34.20;54087.53;5031137;28;20041;-75
2023/05/14 18:17:55;;;;;;;16.40;3.67;;;;;;;-144.73;34.48;54165.50;5016581;28;20044;-76
2023/05/14 18:20:21;;;;;;;4.68;3.42;;;;;;;-144.73;34.09;54122.41;5026239;28;20024;-75
2023/05/14 18:22:46;;;;;;;7.93;3.17;;;;;;;-144.73;34.78;54132.69;5013865;28;20088;-75
2023/05/14 18:25:12;;;;;;;6.93;3.38;;;;;;;-144.73;35.14;54132.69;5032450;28;20021;-75
2023/05/14 18:27:42;;;;;;;5.53;3.22;;;;;;;-144.73;35.41;54116.25;5031916;28;20156;-76
2023/05/14 18:30:13;;;;;;;8.50;3.43;;;;;;;-144.73;35.57;54108.03;5034607;28;20018;-75
2023/05/14 18:32:39;;;;;;;13.38;3.22;;;;;;;-144.73;36.39;54112.16;5033070;28;20391;-75
2023/05/14 18:35:05;;;;;;;7.95;3.95;;;;;;;-144.73;36.70;54169.63;5040573;28;20026;-75
2023/05/14 18:37:30;;;;;;;10.27;3.53;;;;;;;-144.73;37.28;54157.31;5013840;28;20048;-75
2023/05/14 18:39:55;;;;;;;15.57;4.07;;;;;;;-144.73;37.57;54145.00;5030841;28;20075;-76
2023/05/14 18:42:21;;;;;;;9.63;3.63;;;;;;;-144.73;37.83;54147.03;5036333;28;20121;-75
2023/05/14 18:44:46;;;;;;;9.82;3.33;;;;;;;-144.73;38.33;54124.47;5036718;28;20040;-75
2023/05/14 18:47:11;;;;;;;12.30;3.80;;;;;;;-144.73;38.79;54128.56;5030981;28;20060;-75
2023/05/14 18:49:41;;;;;;;9.13;3.28;;;;;;;-144.73;39.50;54153.19;5031266;28;20021;-75
2023/05/14 18:52:07;;;;;;;4.82;3.22;;;;;;;-144.73;40.39;54190.13;5014263;28;20033;-75
2023/05/14 18:54:32;;;;;;;8.95;3.70;;;;;;;-144.73;41.27;54153.19;5073974;23;20040;-73
2023/05/14 18:56:59;;;;;;;7.40;3.53;;;;;;;-144.73;41.68;54161.41;5076203;28;20102;-72
2023/05/14 18:59:25;;;;;;;14.20;3.60;;;;;;;-144.73;42.47;54145.00;5052893;28;20028;-71
2023/05/14 19:01:50;;;;;;;16.33;3.95;;;;;;;-144.73;42.78;54130.63;5086363;28;20046;-71
2023/05/14 19:04:16;;;;;;;9.25;3.58;;;;;;;-144.73;43.38;54153.19;5063857;28;20024;-71
2023/05/14 19:06:41;;;;;;;12.40;4.00;;;;;;;-144.73;43.75;54165.50;5052441;28;20083;-72
2023/05/14 19:09:07;;;;;;;7.90;4.00;;;;;;;-144.73;44.56;54157.31;5065237;28;20024;-71
2023/05/14 19:11:32;;;;;;;13.00;3.95;;;;;;;-144.73;44.68;54128.56;5060292;28;20052;-71
2023/05/14 19:13:58;;;;;;;11.73;4.25;;;;;;;-144.73;44.78;54145.00;5055017;28;20055;-71
2023/05/14 19:16:23;;;;;;;10.35;3.50;;;;;;;-144.73;45.98;54120.34;5049668;28;20040;-71
2023/05/14 19:18:49;;;;;;;10.27;4.40;;;;;;;-144.73;46.28;54132.69;5052165;28;20107;-71
2023/05/14 19:21:14;;;;;;;6.95;4.20;;;;;;;-144.73;46.58;54145.00;5049564;28;20036;-71
2023/05/14 19:23:40;;;;;;;8.18;3.65;;;;;;;-144.73;46.88;54153.19;5070139;28;20025;-71
2023/05/14 19:26:06;;;;;;;12.70;3.72;;;;;;;-144.73;47.31;54153.19;5046315;28;20079;-71
2023/05/14 19:28:32;;;;;;;16.67;3.95;;;;;;;-144.73;47.88;54161.41;5046576;28;20016;-72
2023/05/14 19:30:57;;;;;;;11.25;4.28;;;;;;;-144.73;47.96;54128.56;5047692;28;20027;-72
2023/05/14 19:33:24;;;;;;;9.60;4.03;;;;;;;-144.73;48.37;54181.94;5046567;28;20029;-72
2023/05/14 19:35:50;;;;;;;15.13;4.63;;;;;;;-144.73;49.47;54171.66;5053628;28;20081;-71
2023/05/14 19:38:15;;;;;;;13.88;4.28;;;;;;;-144.73;49.27;54194.25;5048907;28;20033;-71
2023/05/14 19:40:40;;;;;;;19.88;4.90;;;;;;;-144.73;49.95;54214.78;5048235;28;20028;-71
2023/05/14 19:43:06;;;;;;;16.50;4.40;;;;;;;-144.73;50.03;54173.72;5075664;28;20115;-71
2023/05/14 19:45:37;;;;;;;8.60;4.68;;;;;;;-144.73;50.42;54124.47;5051546;28;20028;-72
2023/05/14 19:48:06;;;;;;;17.42;3.92;;;;;;;-144.73;50.88;54169.63;5048201;28;20132;-71
2023/05/14 19:50:32;;;;;;;11.65;4.32;;;;;;;-144.73;51.02;54198.34;5051853;28;20024;-72
2023/05/14 19:52:57;;;;;;;10.63;5.20;;;;;;;-144.73;51.20;54161.41;5046548;28;20047;-71
2023/05/14 19:55:23;;;;;;;15.90;4.43;;;;;;;-144.73;51.43;54149.09;5081108;28;20074;-71
2023/05/14 19:57:48;;;;;;;8.10;4.45;;;;;;;-144.73;53.38;54186.03;5050932;28;20115;-71
2023/05/14 20:00:14;;;;;;;8.45;3.70;;;;;;;-144.73;52.76;54157.31;5063096;28;20026;-72
2023/05/14 20:02:39;;;;;;;11.27;4.00;;;;;;;-144.73;52.80;54157.31;5053450;28;20046;-72
2023/05/14 20:05:07;;;;;;;11.00;4.18;;;;;;;-144.73;53.42;54145.00;5075911;28;20058;-71
2023/05/14 20:07:33;;;;;;;15.80;5.95;;;;;;;-144.73;53.60;54165.50;5047640;28;20032;-72
2023/05/14 20:09:58;;;;;;;9.05;4.72;;;;;;;-144.73;55.43;54161.41;5080281;28;20394;-72
2023/05/14 20:12:23;;;;;;;10.93;4.38;;;;;;;-144.73;54.92;54099.84;5066778;28;20032;-72
2023/05/14 20:14:49;;;;;;;15.68;4.47;;;;;;;-144.73;56.02;54202.44;5048928;28;20111;-72
2023/05/14 20:17:14;;;;;;;11.13;5.07;;;;;;;-144.73;54.77;54145.00;5053487;28;20104;-72
2023/05/14 20:19:40;;;;;;;10.02;5.05;;;;;;;-144.73;54.74;54169.63;5051687;28;20024;-72
2023/05/14 20:22:05;;;;;;;12.05;5.22;;;;;;;-144.73;56.03;54157.31;5052711;28;20047;-70
2023/05/14 20:24:31;;;;;;;15.02;4.70;;;;;;;-144.73;55.53;54165.50;5077266;28;20107;-72